KSJN/SJN METAR and TAF weather

Enter ICAO airport designator
Station Type Date Time Source
KSJN METAR 2021/05/07 00:54 UTC NOAA

KSJN 070054Z AUTO 22013G17KT 10SM CLR 28/M06 A3009 RMK AO2 SLP111 T02781056


Station Type Date Time Source
KSJN Decoded METAR 2021/05/07 00:54 UTC NOAA

ST JOHNS INDUSTRIAL AIRPRK, AZ, United States (KSJN) 34-31N 109-23W 1745M
May 06, 2021 - 08:54 PM EDT / 2021.05.07 0054 UTC
Wind: from the SW (220 degrees) at 15 MPH (13 KT) gusting to 20 MPH (17 KT):0
Visibility: 10 mile(s):0
Sky conditions: clear
Temperature: 82.0 F (27.8 C)
Dew Point: 21.9 F (-5.6 C)
Relative Humidity: 10%
Pressure (altimeter): 30.09 in. Hg (1018 hPa)
ob: KSJN 070054Z AUTO 22013G17KT 10SM CLR 28/M06 A3009 RMK AO2 SLP111 T02781056
cycle: 1

Station Type Date Time Source
KSJN TAF UTC NOAA

Error!

Example: see airport list